KVYS/VYS METAR and TAF weather

Enter ICAO airport designator
Station Type Date Time Source
KVYS METAR 2019/08/17 10:35 UTC NOAA

KVYS 171035Z AUTO 00000KT 7SM BKN034 21/20 A2991 RMK AO2 T02060200


Station Type Date Time Source
KVYS Decoded METAR 2019/08/17 10:35 UTC NOAA

Station name not available
Aug 17, 2019 - 06:35 AM EDT / 2019.08.17 1035 UTC
Wind: Calm:0
Visibility: 7 mile(s):0
Sky conditions: mostly cloudy
Temperature: 69.1 F (20.6 C)
Dew Point: 68.0 F (20.0 C)
Relative Humidity: 96%
Pressure (altimeter): 29.91 in. Hg (1012 hPa)
ob: KVYS 171035Z AUTO 00000KT 7SM BKN034 21/20 A2991 RMK AO2 T02060200
cycle: 10

Station Type Date Time Source
KVYS TAF UTC NOAA

Error!

Example: see airport list